createdAt,value
2023-03-12T00:00:09.415Z,508.00
2023-03-12T00:04:09.489Z,507.00
2023-03-12T00:08:09.376Z,507.00
2023-03-12T00:12:09.315Z,509.00
2023-03-12T00:16:09.318Z,509.00
2023-03-12T00:20:09.231Z,505.00
2023-03-12T00:24:09.195Z,504.00
2023-03-12T00:28:09.154Z,511.00
2023-03-12T00:32:09.305Z,503.00
2023-03-12T00:36:09.272Z,511.00
2023-03-12T00:40:09.271Z,507.00
2023-03-12T00:44:09.226Z,502.00
2023-03-12T00:48:09.180Z,503.00
2023-03-12T00:52:09.115Z,503.00
2023-03-12T00:56:09.104Z,506.00
2023-03-12T01:00:09.073Z,509.00
2023-03-12T01:04:09.079Z,507.00
2023-03-12T01:08:09.007Z,506.00
2023-03-12T01:12:09.204Z,504.00
2023-03-12T01:16:09.207Z,505.00
2023-03-12T01:20:09.096Z,510.00
2023-03-12T01:24:09.106Z,509.00
2023-03-12T01:28:09.048Z,510.00
2023-03-12T01:32:08.997Z,505.00
2023-03-12T01:36:09.062Z,505.00
2023-03-12T01:40:08.928Z,507.00
2023-03-12T01:44:08.919Z,502.00
2023-03-12T01:48:08.847Z,508.00
2023-03-12T01:52:09.021Z,504.00
2023-03-12T01:56:09.001Z,504.00
2023-03-12T02:00:08.969Z,507.00
2023-03-12T02:04:08.958Z,510.00
2023-03-12T02:08:08.896Z,507.00
2023-03-12T02:12:08.863Z,510.00
2023-03-12T02:16:08.833Z,506.00
2023-03-12T02:20:08.780Z,503.00
2023-03-12T02:24:08.748Z,505.00
2023-03-12T02:28:08.727Z,504.00
2023-03-12T02:32:08.855Z,505.00
2023-03-12T02:36:08.838Z,505.00
2023-03-12T02:40:08.741Z,508.00
2023-03-12T02:44:08.732Z,506.00
2023-03-12T02:48:08.694Z,502.00
2023-03-12T02:52:08.640Z,508.00
2023-03-12T02:56:08.617Z,506.00
2023-03-12T03:00:08.577Z,506.00
2023-03-12T03:04:08.590Z,504.00
2023-03-12T03:08:08.475Z,506.00
2023-03-12T03:12:08.668Z,508.00
2023-03-12T03:16:08.675Z,507.00
2023-03-12T03:20:08.620Z,504.00
2023-03-12T03:24:08.574Z,507.00
2023-03-12T03:28:08.544Z,506.00
2023-03-12T03:32:08.495Z,507.00
2023-03-12T03:36:08.450Z,512.00
2023-03-12T03:40:08.428Z,510.00
2023-03-12T03:44:08.394Z,506.00
2023-03-12T03:48:08.376Z,506.00
2023-03-12T03:52:08.339Z,502.00
2023-03-12T03:56:08.277Z,510.00
2023-03-12T04:00:08.272Z,506.00
2023-03-12T04:04:08.232Z,507.00
2023-03-12T04:08:08.207Z,508.00
2023-03-12T04:12:08.160Z,509.00
2023-03-12T04:16:08.240Z,508.00
2023-03-12T04:20:08.085Z,510.00
2023-03-12T04:24:08.044Z,506.00
2023-03-12T04:28:08.215Z,507.00
2023-03-12T04:32:08.165Z,508.00
2023-03-12T04:36:08.159Z,508.00
2023-03-12T04:40:08.119Z,511.00
2023-03-12T04:44:08.069Z,505.00
2023-03-12T04:48:08.055Z,508.00
2023-03-12T04:52:07.991Z,508.00
2023-03-12T04:56:07.973Z,505.00
2023-03-12T05:00:07.951Z,500.00
2023-03-12T05:04:07.971Z,511.00
2023-03-12T05:08:07.989Z,505.00
2023-03-12T05:12:07.977Z,508.00
2023-03-12T05:16:07.956Z,513.00
2023-03-12T05:20:07.926Z,513.00
2023-03-12T05:24:07.861Z,506.00
2023-03-12T05:28:07.846Z,506.00
2023-03-12T05:32:07.779Z,506.00
2023-03-12T05:36:07.785Z,506.00
2023-03-12T05:40:07.728Z,504.00
2023-03-12T05:44:07.672Z,513.00
2023-03-12T05:48:07.761Z,511.00
2023-03-12T05:52:07.978Z,510.00
2023-03-12T05:56:07.928Z,504.00
2023-03-12T06:00:07.922Z,509.00
2023-03-12T06:04:07.947Z,504.00
2023-03-12T06:08:07.853Z,505.00
2023-03-12T06:12:07.798Z,510.00
2023-03-12T06:16:07.761Z,514.00
2023-03-12T06:20:07.729Z,509.00
2023-03-12T06:24:07.691Z,511.00
2023-03-12T06:28:07.649Z,509.00
2023-03-12T06:32:07.637Z,508.00
2023-03-12T06:36:07.566Z,507.00
2023-03-12T06:40:07.723Z,508.00
2023-03-12T06:44:07.938Z,510.00
2023-03-12T06:48:08.203Z,504.00
2023-03-12T06:52:08.409Z,512.00
2023-03-12T06:56:08.594Z,511.00
2023-03-12T07:00:08.767Z,508.00
2023-03-12T07:04:08.976Z,511.00
2023-03-12T07:08:09.105Z,510.00
2023-03-12T07:12:09.347Z,502.00
2023-03-12T07:16:09.571Z,504.00
2023-03-12T07:20:09.636Z,504.00
2023-03-12T07:24:09.781Z,511.00
2023-03-12T07:28:09.914Z,507.00
2023-03-12T07:32:10.009Z,509.00
2023-03-12T07:36:10.305Z,512.00
2023-03-12T07:40:10.364Z,510.00
2023-03-12T07:44:10.615Z,509.00
2023-03-12T07:48:10.763Z,505.00
2023-03-12T07:52:10.888Z,506.00
2023-03-12T07:56:11.153Z,507.00
2023-03-12T08:00:11.284Z,510.00
2023-03-12T08:04:11.448Z,509.00
2023-03-12T08:08:11.593Z,507.00
2023-03-12T08:12:11.771Z,511.00
2023-03-12T08:16:11.892Z,508.00
2023-03-12T08:20:12.032Z,505.00
2023-03-12T08:24:12.166Z,511.00
2023-03-12T08:28:12.385Z,511.00
2023-03-12T08:32:12.675Z,510.00
2023-03-12T08:36:12.734Z,509.00
2023-03-12T08:40:12.940Z,510.00
2023-03-12T08:44:13.116Z,509.00
2023-03-12T08:48:13.349Z,508.00
2023-03-12T08:52:13.304Z,506.00
2023-03-12T08:56:13.254Z,507.00
2023-03-12T09:00:13.223Z,516.00
2023-03-12T09:04:13.238Z,508.00
2023-03-12T09:08:13.178Z,510.00
2023-03-12T09:12:13.128Z,511.00
2023-03-12T09:16:13.262Z,511.00
2023-03-12T09:20:13.068Z,506.00
2023-03-12T09:24:13.059Z,516.00
2023-03-12T09:28:15.432Z,510.00
2023-03-12T09:32:12.998Z,508.00
2023-03-12T09:36:13.017Z,509.00
2023-03-12T09:40:12.884Z,515.00
2023-03-12T09:44:12.892Z,507.00
2023-03-12T09:48:12.872Z,514.00
2023-03-12T09:52:12.811Z,510.00
2023-03-12T09:56:12.856Z,513.00
2023-03-12T10:00:12.823Z,508.00
2023-03-12T10:04:12.916Z,514.00
2023-03-12T10:08:25.476Z,510.00
2023-03-12T10:12:13.706Z,509.00
2023-03-12T10:16:12.799Z,514.00
2023-03-12T10:20:12.649Z,514.00
2023-03-12T10:24:12.631Z,510.00
2023-03-12T10:28:12.583Z,514.00
2023-03-12T10:32:12.554Z,513.00
2023-03-12T10:36:12.541Z,508.00
2023-03-12T10:40:12.488Z,512.00
2023-03-12T10:44:12.462Z,509.00
2023-03-12T10:48:12.401Z,509.00
2023-03-12T10:52:12.399Z,509.00
2023-03-12T10:56:12.371Z,508.00
2023-03-12T11:00:12.367Z,509.00
2023-03-12T11:04:12.328Z,516.00
2023-03-12T11:08:12.290Z,508.00
2023-03-12T11:12:12.257Z,512.00
2023-03-12T11:16:12.194Z,512.00
2023-03-12T11:20:12.180Z,511.00
2023-03-12T11:24:12.121Z,510.00
2023-03-12T11:28:12.125Z,512.00
2023-03-12T11:32:12.070Z,514.00
2023-03-12T11:36:12.149Z,508.00
2023-03-12T11:40:12.136Z,512.00
2023-03-12T11:44:12.081Z,508.00
2023-03-12T11:48:12.070Z,511.00
2023-03-12T11:52:12.005Z,515.00
2023-03-12T11:56:11.967Z,509.00
2023-03-12T12:00:11.942Z,515.00
2023-03-12T12:04:11.889Z,517.00
2023-03-12T12:08:11.905Z,517.00
2023-03-12T12:12:11.851Z,513.00
2023-03-12T12:16:12.018Z,512.00
2023-03-12T12:20:12.027Z,512.00
2023-03-12T12:24:11.971Z,516.00
2023-03-12T12:28:12.012Z,510.00
2023-03-12T12:32:11.944Z,516.00
2023-03-12T12:36:11.919Z,515.00
2023-03-12T12:40:11.811Z,512.00
2023-03-12T12:44:11.795Z,515.00
2023-03-12T12:48:11.769Z,513.00
2023-03-12T12:52:11.726Z,513.00
2023-03-12T12:56:14.169Z,514.00
2023-03-12T13:00:11.905Z,516.00
2023-03-12T13:04:11.950Z,514.00
2023-03-12T13:08:11.836Z,512.00
2023-03-12T13:12:11.840Z,521.00
2023-03-12T13:16:11.801Z,517.00
2023-03-12T13:20:11.752Z,514.00
2023-03-12T13:24:11.686Z,515.00
2023-03-12T13:28:11.651Z,518.00
2023-03-12T13:32:11.620Z,513.00
2023-03-12T13:36:11.658Z,513.00
2023-03-12T13:40:11.557Z,516.00
2023-03-12T13:44:11.527Z,511.00
2023-03-12T13:48:11.500Z,516.00
2023-03-12T13:52:11.425Z,515.00
2023-03-12T13:56:11.439Z,517.00
2023-03-12T14:00:11.406Z,512.00
2023-03-12T14:04:11.532Z,513.00
2023-03-12T14:08:11.504Z,514.00
2023-03-12T14:12:11.445Z,517.00
2023-03-12T14:16:11.509Z,512.00
2023-03-12T14:20:11.355Z,518.00
2023-03-12T14:24:11.361Z,521.00
2023-03-12T14:28:11.341Z,516.00
2023-03-12T14:32:11.263Z,515.00
2023-03-12T14:36:11.228Z,522.00
2023-03-12T14:40:11.206Z,520.00
2023-03-12T14:44:11.397Z,518.00
2023-03-12T14:48:11.341Z,520.00
2023-03-12T14:52:11.310Z,518.00
2023-03-12T14:56:11.261Z,521.00
2023-03-12T15:00:11.300Z,516.00
2023-03-12T15:04:11.216Z,514.00
2023-03-12T15:08:11.182Z,513.00
2023-03-12T15:12:11.125Z,508.00
2023-03-12T15:16:11.133Z,515.00
2023-03-12T15:20:11.146Z,506.00
2023-03-12T15:24:11.030Z,505.00
2023-03-12T15:28:10.978Z,525.00
2023-03-12T15:32:11.038Z,509.00
2023-03-12T15:36:11.020Z,510.00
2023-03-12T15:40:11.067Z,517.00
2023-03-12T15:44:11.122Z,511.00
2023-03-12T15:48:11.229Z,508.00
2023-03-12T15:52:11.367Z,500.00
2023-03-12T15:56:11.430Z,503.00
2023-03-12T16:00:11.564Z,513.00
2023-03-12T16:04:11.675Z,505.00
2023-03-12T16:08:11.827Z,505.00
2023-03-12T16:12:11.962Z,514.00
2023-03-12T16:16:12.176Z,513.00
2023-03-12T16:20:12.393Z,512.00
2023-03-12T16:24:12.587Z,518.00
2023-03-12T16:28:12.783Z,522.00
2023-03-12T16:32:13.012Z,526.00
2023-03-12T16:36:13.020Z,526.00
2023-03-12T16:40:16.175Z,531.00
2023-03-12T16:44:12.892Z,532.00
2023-03-12T16:48:12.874Z,534.00
2023-03-12T16:52:12.841Z,533.00
2023-03-12T16:56:12.795Z,539.00
2023-03-12T17:00:12.776Z,536.00
2023-03-12T17:04:12.816Z,534.00
2023-03-12T17:08:12.688Z,539.00
2023-03-12T17:12:12.905Z,538.00
2023-03-12T17:16:12.933Z,537.00
2023-03-12T17:20:12.843Z,538.00
2023-03-12T17:24:12.821Z,537.00
2023-03-12T17:28:12.771Z,536.00
2023-03-12T17:32:12.720Z,538.00
2023-03-12T17:36:12.709Z,537.00
2023-03-12T17:40:12.669Z,541.00
2023-03-12T17:44:12.640Z,541.00
2023-03-12T17:48:12.650Z,545.00
2023-03-12T17:52:12.822Z,542.00
2023-03-12T17:56:12.868Z,543.00
2023-03-12T18:00:13.030Z,545.00
2023-03-12T18:04:12.700Z,540.00
2023-03-12T18:08:12.677Z,543.00
2023-03-12T18:12:12.628Z,538.00
2023-03-12T18:16:12.625Z,546.00
2023-03-12T18:20:12.583Z,540.00
2023-03-12T18:24:14.401Z,544.00
2023-03-12T18:28:12.516Z,544.00
2023-03-12T18:32:12.491Z,541.00
2023-03-12T18:36:12.410Z,544.00
2023-03-12T18:40:12.434Z,540.00
2023-03-12T18:44:12.380Z,543.00
2023-03-12T18:48:12.354Z,545.00
2023-03-12T18:52:12.320Z,543.00
2023-03-12T18:56:12.286Z,545.00
2023-03-12T19:00:12.233Z,547.00
2023-03-12T19:04:12.220Z,550.00
2023-03-12T19:08:12.186Z,546.00
2023-03-12T19:12:12.138Z,545.00
2023-03-12T19:16:12.156Z,553.00
2023-03-12T19:20:12.067Z,551.00
2023-03-12T19:24:12.078Z,546.00
2023-03-12T19:28:11.998Z,545.00
2023-03-12T19:32:11.970Z,546.00
2023-03-12T19:36:11.906Z,549.00
2023-03-12T19:40:11.926Z,547.00
2023-03-12T19:44:11.879Z,548.00
2023-03-12T19:48:11.812Z,544.00
2023-03-12T19:52:11.785Z,549.00
2023-03-12T19:56:11.742Z,542.00
2023-03-12T20:00:11.899Z,546.00
2023-03-12T20:04:12.118Z,543.00
2023-03-12T20:08:12.250Z,543.00
2023-03-12T20:12:12.410Z,548.00
2023-03-12T20:16:12.626Z,548.00
2023-03-12T20:20:12.732Z,542.00
2023-03-12T20:24:12.838Z,547.00
2023-03-12T20:28:13.014Z,545.00
2023-03-12T20:32:13.185Z,547.00
2023-03-12T20:36:13.392Z,543.00
2023-03-12T20:40:13.567Z,547.00
2023-03-12T20:44:13.749Z,549.00
2023-03-12T20:48:13.896Z,544.00
2023-03-12T20:52:14.005Z,545.00
2023-03-12T20:56:14.121Z,546.00
2023-03-12T21:00:14.202Z,549.00
2023-03-12T21:04:14.319Z,542.00
2023-03-12T21:08:14.436Z,542.00
2023-03-12T21:12:14.550Z,545.00
2023-03-12T21:16:14.738Z,545.00
2023-03-12T21:20:14.721Z,539.00
2023-03-12T21:24:14.826Z,543.00
2023-03-12T21:28:14.959Z,544.00
2023-03-12T21:32:15.091Z,541.00
2023-03-12T21:36:15.169Z,546.00
2023-03-12T21:40:15.270Z,538.00
2023-03-12T21:44:16.708Z,544.00
2023-03-12T21:48:15.557Z,542.00
2023-03-12T21:52:15.602Z,538.00
2023-03-12T21:56:15.725Z,544.00
2023-03-12T22:00:15.898Z,540.00
2023-03-12T22:04:16.045Z,543.00
2023-03-12T22:08:16.086Z,544.00
2023-03-12T22:12:16.205Z,546.00
2023-03-12T22:16:16.362Z,541.00
2023-03-12T22:20:16.340Z,540.00
2023-03-12T22:24:16.433Z,536.00
2023-03-12T22:28:16.552Z,537.00
2023-03-12T22:32:16.685Z,538.00
2023-03-12T22:36:16.819Z,539.00
2023-03-12T22:40:16.793Z,541.00
2023-03-12T22:44:16.902Z,537.00
2023-03-12T22:48:17.053Z,538.00
2023-03-12T22:52:17.165Z,541.00
2023-03-12T22:56:17.272Z,539.00
2023-03-12T23:00:17.367Z,537.00
2023-03-12T23:04:17.510Z,534.00
2023-03-12T23:08:17.595Z,533.00
2023-03-12T23:12:17.640Z,538.00
2023-03-12T23:16:17.874Z,535.00
2023-03-12T23:20:17.838Z,542.00
2023-03-12T23:24:17.929Z,534.00
2023-03-12T23:28:17.914Z,531.00
2023-03-12T23:32:17.985Z,533.00
2023-03-12T23:36:18.039Z,537.00
2023-03-12T23:40:18.101Z,538.00
2023-03-12T23:44:18.084Z,531.00
2023-03-12T23:48:18.142Z,535.00
2023-03-12T23:52:18.159Z,532.00
2023-03-12T23:56:18.151Z,536.00
